createdAt,value
2022-07-30T00:00:32.923Z,100839.91
2022-07-30T00:02:59.476Z,100839.97
2022-07-30T00:05:25.941Z,100835.56
2022-07-30T00:07:52.447Z,100832.94
2022-07-30T00:10:20.527Z,100830.34
2022-07-30T00:12:47.030Z,100839.22
2022-07-30T00:15:13.457Z,100832.34
2022-07-30T00:17:40.007Z,100833.16
2022-07-30T00:20:06.769Z,100837.56
2022-07-30T00:22:33.539Z,100837.59
2022-07-30T00:25:00.022Z,100836.72
2022-07-30T00:27:26.827Z,100845.53
2022-07-30T00:29:53.281Z,100846.47
2022-07-30T00:32:19.727Z,100846.47
2022-07-30T00:34:46.613Z,100843.81
2022-07-30T00:37:13.062Z,100839.41
2022-07-30T00:39:39.489Z,100845.59
2022-07-30T00:42:05.965Z,100847.47
2022-07-30T00:44:32.515Z,100842.25
2022-07-30T00:46:59.483Z,100845.84
2022-07-30T00:49:26.849Z,100849.50
2022-07-30T00:51:53.547Z,100852.09
2022-07-30T00:54:21.325Z,100848.63
2022-07-30T00:56:48.632Z,100846.88
2022-07-30T00:59:15.310Z,100851.28
2022-07-30T01:01:41.732Z,100850.44
2022-07-30T01:04:11.557Z,100856.72
2022-07-30T01:06:39.436Z,100857.59
2022-07-30T01:09:07.054Z,100859.38
2022-07-30T01:11:37.624Z,100859.38
2022-07-30T01:14:06.246Z,100863.00
2022-07-30T01:16:33.941Z,100863.25
2022-07-30T01:19:21.027Z,100865.03
2022-07-30T01:21:52.361Z,100857.97
2022-07-30T01:24:26.692Z,100871.25
2022-07-30T01:26:54.175Z,100871.25
2022-07-30T01:29:21.275Z,100869.53
2022-07-30T01:31:48.669Z,100866.91
2022-07-30T01:34:15.455Z,100867.00
2022-07-30T01:36:45.092Z,100872.31
2022-07-30T01:39:12.449Z,100871.59
2022-07-30T01:41:39.794Z,100874.22
2022-07-30T01:44:06.673Z,100870.72
2022-07-30T01:46:33.760Z,100879.56
2022-07-30T01:49:01.143Z,100878.72
2022-07-30T01:51:33.208Z,100881.41
2022-07-30T01:54:00.642Z,100873.47
2022-07-30T01:56:28.264Z,100877.00
2022-07-30T01:58:55.561Z,100883.22
2022-07-30T02:01:22.045Z,100876.22
2022-07-30T02:03:48.672Z,100883.31
2022-07-30T02:06:21.135Z,100878.91
2022-07-30T02:08:59.349Z,100886.00
2022-07-30T02:11:44.295Z,100888.66
2022-07-30T02:14:22.941Z,100894.00
2022-07-30T02:16:51.331Z,100887.84
2022-07-30T02:19:18.593Z,100892.28
2022-07-30T02:24:20.461Z,100894.13
2022-07-30T02:26:50.431Z,100890.63
2022-07-30T02:29:18.151Z,100886.22
2022-07-30T02:31:45.528Z,100890.66
2022-07-30T02:34:14.214Z,100894.22
2022-07-30T02:36:42.010Z,100889.84
2022-07-30T02:39:08.526Z,100892.50
2022-07-30T02:41:36.595Z,100896.91
2022-07-30T02:44:03.647Z,100897.88
2022-07-30T02:46:32.185Z,100904.03
2022-07-30T02:48:58.963Z,100905.84
2022-07-30T02:51:25.921Z,100914.69
2022-07-30T02:53:53.624Z,100910.31
2022-07-30T02:56:21.314Z,100920.03
2022-07-30T02:58:48.821Z,100915.66
2022-07-30T03:01:16.566Z,100914.81
2022-07-30T03:03:43.853Z,100916.59
2022-07-30T03:06:12.168Z,100917.50
2022-07-30T03:08:38.739Z,100923.66
2022-07-30T03:11:05.808Z,100919.28
2022-07-30T03:13:32.324Z,100927.22
2022-07-30T03:15:59.442Z,100927.25
2022-07-30T03:18:30.744Z,100927.25
2022-07-30T03:20:58.936Z,100930.78
2022-07-30T03:23:25.542Z,100926.44
2022-07-30T03:25:55.186Z,100926.41
2022-07-30T03:28:22.735Z,100934.38
2022-07-30T03:30:49.198Z,100931.75
2022-07-30T03:33:16.230Z,100937.03
2022-07-30T03:35:43.992Z,100934.41
2022-07-30T03:38:14.483Z,100940.59
2022-07-30T03:40:44.744Z,100940.59
2022-07-30T03:43:32.336Z,100936.22
2022-07-30T03:45:59.077Z,100945.88
2022-07-30T03:48:25.956Z,100942.38
2022-07-30T03:50:53.548Z,100945.03
2022-07-30T03:53:20.643Z,100939.75
2022-07-30T03:55:47.356Z,100939.75
2022-07-30T03:58:13.780Z,100940.66
2022-07-30T04:00:40.783Z,100942.38
2022-07-30T04:03:07.725Z,100951.19
2022-07-30T04:05:40.950Z,100949.44
2022-07-30T04:08:08.191Z,100945.91
2022-07-30T04:10:35.050Z,100953.81
2022-07-30T04:13:01.497Z,100958.22
2022-07-30T04:16:38.490Z,100959.09
2022-07-30T04:18:15.867Z,100952.97
2022-07-30T04:20:45.240Z,100955.63
2022-07-30T04:23:12.024Z,100952.97
2022-07-30T04:25:40.277Z,100963.50
2022-07-30T04:28:06.954Z,100963.53
2022-07-30T04:30:34.904Z,100959.97
2022-07-30T04:33:02.969Z,100959.97
2022-07-30T04:35:50.762Z,100961.72
2022-07-30T04:38:17.828Z,100960.84
2022-07-30T04:40:44.306Z,100963.50
2022-07-30T04:43:10.761Z,100966.13
2022-07-30T04:45:39.258Z,100969.66
2022-07-30T04:48:06.278Z,100967.00
2022-07-30T04:50:34.134Z,100967.03
2022-07-30T04:53:01.230Z,100964.41
2022-07-30T04:55:27.905Z,100967.91
2022-07-30T04:57:55.095Z,100975.81
2022-07-30T05:00:22.013Z,100976.69
2022-07-30T05:02:49.300Z,100978.47
2022-07-30T05:05:17.588Z,100980.22
2022-07-30T05:07:44.547Z,100977.59
2022-07-30T05:10:12.251Z,100973.19
2022-07-30T05:12:38.944Z,100974.94
2022-07-30T05:15:10.045Z,100977.59
2022-07-30T05:17:36.956Z,100985.47
2022-07-30T05:20:04.307Z,100986.38
2022-07-30T05:22:30.738Z,100983.72
2022-07-30T05:24:57.564Z,100998.66
2022-07-30T05:27:24.090Z,100985.47
2022-07-30T05:29:50.607Z,100989.88
2022-07-30T05:32:17.070Z,100990.75
2022-07-30T05:34:44.961Z,100990.69
2022-07-30T05:37:16.619Z,100989.84
2022-07-30T05:40:02.214Z,100977.53
2022-07-30T05:42:29.536Z,100981.91
2022-07-30T05:44:55.993Z,100986.31
2022-07-30T05:47:22.876Z,100982.81
2022-07-30T05:49:49.371Z,100977.53
2022-07-30T05:52:15.824Z,100975.78
2022-07-30T05:54:42.328Z,100974.00
2022-07-30T05:57:08.759Z,100986.31
2022-07-30T05:59:35.207Z,100982.81
2022-07-30T06:02:03.304Z,100991.56
2022-07-30T06:04:30.102Z,100988.91
2022-07-30T06:06:56.565Z,100983.63
2022-07-30T06:09:32.940Z,100989.81
2022-07-30T06:12:04.021Z,100993.31
2022-07-30T06:14:32.044Z,100997.72
2022-07-30T06:16:58.864Z,101000.38
2022-07-30T06:19:26.171Z,100994.22
2022-07-30T06:22:06.263Z,100996.84
2022-07-30T06:24:33.526Z,100998.63
2022-07-30T06:27:00.377Z,100996.84
2022-07-30T06:29:27.127Z,100995.09
2022-07-30T06:31:53.599Z,100983.72
2022-07-30T06:34:20.140Z,100979.34
2022-07-30T06:36:46.658Z,100983.72
2022-07-30T06:39:13.174Z,100979.31
2022-07-30T06:41:40.725Z,100983.72
2022-07-30T06:44:07.212Z,100988.09
2022-07-30T06:46:33.757Z,100977.56
2022-07-30T06:49:00.294Z,100981.06
2022-07-30T06:51:27.266Z,100986.34
2022-07-30T06:53:53.758Z,100996.00
2022-07-30T06:56:20.231Z,101027.66
2022-07-30T06:58:46.723Z,101053.13
2022-07-30T07:01:13.257Z,101056.66
2022-07-30T07:03:40.819Z,101075.97
2022-07-30T07:06:07.698Z,101068.06
2022-07-30T07:08:36.667Z,101065.44
2022-07-30T07:11:03.145Z,101054.00
2022-07-30T07:13:29.763Z,101048.69
2022-07-30T07:15:57.523Z,101045.16
2022-07-30T07:18:24.060Z,101039.03
2022-07-30T07:20:50.529Z,101046.06
2022-07-30T07:23:19.919Z,101040.78
2022-07-30T07:25:47.356Z,101041.66
2022-07-30T07:28:13.983Z,101032.00
2022-07-30T07:30:44.222Z,101025.84
2022-07-30T07:33:10.963Z,101028.50
2022-07-30T07:35:48.971Z,101024.94
2022-07-30T07:38:19.743Z,101019.69
2022-07-30T07:40:47.379Z,101007.38
2022-07-30T07:43:14.724Z,101016.16
2022-07-30T07:45:42.646Z,101006.47
2022-07-30T07:48:09.264Z,101009.97
2022-07-30T07:50:36.516Z,101005.50
2022-07-30T07:53:03.026Z,101001.13
2022-07-30T07:55:29.498Z,100993.22
2022-07-30T07:57:59.406Z,100989.72
2022-07-30T08:00:26.593Z,100972.97
2022-07-30T08:02:53.242Z,100953.63
2022-07-30T08:05:19.924Z,100946.59
2022-07-30T08:07:46.710Z,100941.28
2022-07-30T08:10:15.102Z,100930.75
2022-07-30T08:12:42.185Z,100931.63
2022-07-30T08:15:12.035Z,100929.88
2022-07-30T08:17:45.417Z,100938.66
2022-07-30T08:20:13.893Z,100924.66
2022-07-30T08:22:41.184Z,100929.94
2022-07-30T08:25:08.537Z,100942.22
2022-07-30T08:27:35.430Z,100945.75
2022-07-30T08:30:06.618Z,100952.81
2022-07-30T08:32:33.150Z,100959.00
2022-07-30T08:34:59.658Z,100987.13
2022-07-30T08:37:26.448Z,100997.66
2022-07-30T08:39:52.926Z,101004.72
2022-07-30T08:42:19.432Z,101009.09
2022-07-30T08:44:46.632Z,101010.00
2022-07-30T08:47:16.909Z,101008.25
2022-07-30T08:49:44.684Z,101010.88
2022-07-30T08:52:11.240Z,101021.44
2022-07-30T08:54:39.179Z,101022.31
2022-07-30T08:57:06.067Z,101027.59
2022-07-30T09:00:00.004Z,101032.00
2022-07-30T09:02:27.516Z,101032.94
2022-07-30T09:04:54.693Z,101032.03
2022-07-30T09:07:21.260Z,101032.03
2022-07-30T09:09:47.746Z,101032.91
2022-07-30T09:12:37.152Z,101038.19
2022-07-30T09:15:08.117Z,101048.72
2022-07-30T09:18:06.909Z,101048.72
2022-07-30T09:20:34.895Z,101047.88
2022-07-30T09:23:03.291Z,101054.00
2022-07-30T09:25:44.655Z,101058.41
2022-07-30T09:28:16.716Z,101054.91
2022-07-30T09:30:54.438Z,101060.16
2022-07-30T09:33:38.777Z,101058.38
2022-07-30T09:36:09.994Z,101054.88
2022-07-30T09:38:42.654Z,101061.88
2022-07-30T09:41:23.028Z,101062.78
2022-07-30T09:43:55.958Z,101063.63
2022-07-30T09:46:22.454Z,101063.66
2022-07-30T09:48:49.409Z,101068.91
2022-07-30T09:51:16.200Z,101068.03
2022-07-30T09:54:00.959Z,101074.16
2022-07-30T09:56:29.323Z,101076.78
2022-07-30T09:58:56.732Z,101075.03
2022-07-30T10:01:23.352Z,101074.13
2022-07-30T10:04:09.838Z,101077.63
2022-07-30T10:06:41.709Z,101071.44
2022-07-30T10:09:13.995Z,101074.06
2022-07-30T10:11:44.664Z,101069.63
2022-07-30T10:14:11.936Z,101075.78
2022-07-30T10:16:38.499Z,101073.13
2022-07-30T10:19:05.283Z,101072.22
2022-07-30T10:21:40.185Z,101069.56
2022-07-30T10:24:06.958Z,101075.72
2022-07-30T10:26:35.077Z,101073.06
2022-07-30T10:29:02.044Z,101075.69
2022-07-30T10:31:48.412Z,101079.22
2022-07-30T10:34:17.515Z,101081.84
2022-07-30T10:36:47.798Z,101074.75
2022-07-30T10:39:20.544Z,101077.38
2022-07-30T10:41:59.130Z,101077.34
2022-07-30T10:44:34.675Z,101079.94
2022-07-30T10:47:07.695Z,101080.81
2022-07-30T10:49:41.555Z,101084.31
2022-07-30T10:52:09.863Z,101078.09
2022-07-30T10:54:39.381Z,101086.00
2022-07-30T10:57:23.038Z,101082.47
2022-07-30T11:00:04.156Z,101080.72
2022-07-30T11:02:35.473Z,101078.06
2022-07-30T11:05:17.659Z,101082.41
2022-07-30T11:07:45.326Z,101080.63
2022-07-30T11:10:39.520Z,101076.22
2022-07-30T11:13:09.633Z,101090.31
2022-07-30T11:15:55.998Z,101081.47
2022-07-30T11:18:25.018Z,101085.84
2022-07-30T11:21:20.604Z,101081.41
2022-07-30T11:23:48.133Z,101081.41
2022-07-30T11:26:38.613Z,101092.84
2022-07-30T11:29:32.972Z,101091.06
2022-07-30T11:32:29.696Z,101088.38
2022-07-30T11:35:18.289Z,101092.75
2022-07-30T11:38:02.907Z,101090.09
2022-07-30T11:40:32.950Z,101081.22
2022-07-30T11:43:15.878Z,101089.13
2022-07-30T11:45:42.622Z,101088.19
2022-07-30T11:48:14.162Z,101081.97
2022-07-30T11:50:41.281Z,101083.72
2022-07-30T11:53:09.467Z,101078.41
2022-07-30T11:55:38.953Z,101077.50
2022-07-30T11:58:08.487Z,101078.34
2022-07-30T12:00:37.710Z,101083.53
2022-07-30T12:03:24.985Z,101075.66
2022-07-30T12:05:53.231Z,101079.09
2022-07-30T12:08:35.284Z,101070.16
2022-07-30T12:11:02.888Z,101075.47
2022-07-30T12:13:45.034Z,101071.88
2022-07-30T12:16:16.441Z,101062.09
2022-07-30T12:18:43.378Z,101063.75
2022-07-30T12:21:15.595Z,101069.91
2022-07-30T12:23:43.557Z,101069.03
2022-07-30T12:26:24.607Z,101059.22
2022-07-30T12:28:54.951Z,101069.66
2022-07-30T12:31:21.436Z,101061.59
2022-07-30T12:33:47.866Z,101075.66
2022-07-30T12:36:34.519Z,101068.44
2022-07-30T12:39:02.652Z,101069.25
2022-07-30T12:41:43.284Z,101060.38
2022-07-30T12:44:10.111Z,101066.50
2022-07-30T12:46:41.198Z,101062.88
2022-07-30T12:49:21.520Z,101054.75
2022-07-30T12:51:59.733Z,101055.59
2022-07-30T12:54:27.707Z,101051.16
2022-07-30T12:57:03.072Z,101053.69
2022-07-30T12:59:31.056Z,101041.34
2022-07-30T13:02:00.277Z,101036.63
2022-07-30T13:04:27.509Z,101031.13
2022-07-30T13:07:04.728Z,101033.75
2022-07-30T13:09:31.555Z,101034.59
2022-07-30T13:11:58.000Z,101032.00
2022-07-30T13:14:26.595Z,101028.41
2022-07-30T13:16:55.022Z,101029.34
2022-07-30T13:19:21.744Z,101023.88
2022-07-30T13:21:49.689Z,101029.03
2022-07-30T13:24:17.865Z,101022.78
2022-07-30T13:26:45.109Z,101012.00
2022-07-30T13:29:13.429Z,101020.72
2022-07-30T13:31:42.518Z,101014.41
2022-07-30T13:34:09.767Z,101015.13
2022-07-30T13:36:36.259Z,101012.44
2022-07-30T13:39:02.693Z,101011.50
2022-07-30T13:41:29.457Z,101014.38
2022-07-30T13:43:55.929Z,101013.19
2022-07-30T13:46:22.361Z,101015.75
2022-07-30T13:48:48.940Z,101021.84
2022-07-30T13:51:16.500Z,101025.38
2022-07-30T13:53:42.966Z,101011.31
2022-07-30T13:56:12.805Z,101009.50
2022-07-30T13:58:39.843Z,101014.72
2022-07-30T14:01:07.031Z,101007.50
2022-07-30T14:03:33.784Z,101011.00
2022-07-30T14:06:11.008Z,101017.13
2022-07-30T14:08:38.544Z,101016.13
2022-07-30T14:11:05.105Z,101010.69
2022-07-30T14:13:31.583Z,101006.22
2022-07-30T14:15:58.375Z,100999.91
2022-07-30T14:18:24.821Z,101006.09
2022-07-30T14:20:53.585Z,101001.69
2022-07-30T14:23:20.139Z,101003.41
2022-07-30T14:25:46.768Z,101002.66
2022-07-30T14:28:13.260Z,101005.03
2022-07-30T14:30:39.744Z,100993.44
2022-07-30T14:33:06.198Z,100992.56
2022-07-30T14:35:32.673Z,100981.78
2022-07-30T14:37:59.120Z,100990.31
2022-07-30T14:40:25.579Z,100993.69
2022-07-30T14:42:52.013Z,100986.56
2022-07-30T14:45:22.541Z,100989.03
2022-07-30T14:47:48.978Z,100983.63
2022-07-30T14:50:15.425Z,100987.91
2022-07-30T14:52:41.870Z,100983.94
2022-07-30T14:55:09.420Z,100972.97
2022-07-30T14:57:35.984Z,100979.81
2022-07-30T15:00:03.899Z,100972.41
2022-07-30T15:02:30.343Z,100977.53
2022-07-30T15:04:56.836Z,100980.09
2022-07-30T15:07:23.309Z,100986.25
2022-07-30T15:09:49.777Z,100978.31
2022-07-30T15:12:23.444Z,100985.38
2022-07-30T15:14:53.772Z,100982.00
2022-07-30T15:17:20.297Z,100989.06
2022-07-30T15:19:50.266Z,100998.09
2022-07-30T15:22:20.381Z,100999.06
2022-07-30T15:24:47.251Z,100998.19
2022-07-30T15:27:13.760Z,101001.78
2022-07-30T15:29:40.241Z,101004.63
2022-07-30T15:32:07.215Z,101008.22
2022-07-30T15:34:34.258Z,101001.97
2022-07-30T15:37:01.775Z,101006.41
2022-07-30T15:39:29.471Z,100999.38
2022-07-30T15:41:57.040Z,101010.09
2022-07-30T15:44:24.147Z,101007.63
2022-07-30T15:46:50.659Z,101004.25
2022-07-30T15:49:17.193Z,101002.47
2022-07-30T15:51:48.534Z,101002.44
2022-07-30T15:54:22.896Z,101003.44
2022-07-30T15:56:50.562Z,101001.59
2022-07-30T15:59:17.116Z,101000.56
2022-07-30T16:01:44.036Z,101002.44
2022-07-30T16:04:19.706Z,101003.25
2022-07-30T16:06:47.263Z,101004.09
2022-07-30T16:09:13.727Z,101010.19
2022-07-30T16:11:41.560Z,101006.44
2022-07-30T16:14:08.963Z,100999.06
2022-07-30T16:16:35.406Z,101010.38
2022-07-30T16:19:01.884Z,101005.63
2022-07-30T16:21:28.311Z,101003.78
2022-07-30T16:23:55.182Z,100998.13
2022-07-30T16:26:21.661Z,101007.25
2022-07-30T16:28:48.238Z,100996.88
2022-07-30T16:31:14.688Z,100998.00
2022-07-30T16:33:41.548Z,101000.13
2022-07-30T16:36:08.210Z,101000.88
2022-07-30T16:38:34.723Z,100999.13
2022-07-30T16:41:01.394Z,100995.50
2022-07-30T16:43:27.853Z,100991.13
2022-07-30T16:45:54.303Z,101000.94
2022-07-30T16:48:20.736Z,101000.31
2022-07-30T16:50:47.282Z,100992.31
2022-07-30T16:53:14.652Z,100989.69
2022-07-30T16:55:42.457Z,100999.63
2022-07-30T16:58:09.177Z,100993.66
2022-07-30T17:00:35.676Z,100991.97
2022-07-30T17:03:02.234Z,100992.53
2022-07-30T17:05:28.969Z,100993.06
2022-07-30T17:07:55.512Z,100993.16
2022-07-30T17:10:23.557Z,100997.13
2022-07-30T17:12:53.103Z,100994.72
2022-07-30T17:15:19.614Z,101004.06
2022-07-30T17:17:46.305Z,101004.22
2022-07-30T17:20:14.552Z,101003.31
2022-07-30T17:22:43.165Z,101010.50
2022-07-30T17:25:10.175Z,101010.34
2022-07-30T17:27:37.385Z,101009.59
2022-07-30T17:30:04.923Z,101012.31
2022-07-30T17:32:31.510Z,101012.19
2022-07-30T17:34:58.168Z,101011.03
2022-07-30T17:37:24.910Z,101014.09
2022-07-30T17:40:19.039Z,101012.66
2022-07-30T17:42:39.869Z,101014.00
2022-07-30T17:45:07.666Z,101012.50
2022-07-30T17:47:34.273Z,101008.47
2022-07-30T17:50:01.030Z,101016.81
2022-07-30T17:52:27.969Z,101009.97
2022-07-30T17:54:54.920Z,101012.97
2022-07-30T17:57:21.692Z,101011.31
2022-07-30T17:59:48.439Z,101012.56
2022-07-30T18:02:15.157Z,101010.16
2022-07-30T18:04:41.933Z,101011.16
2022-07-30T18:07:08.556Z,101010.56
2022-07-30T18:09:39.670Z,101010.78
2022-07-30T18:12:08.173Z,101011.91
2022-07-30T18:14:34.900Z,101011.13
2022-07-30T18:17:02.974Z,101013.94
2022-07-30T18:19:29.679Z,101013.28
2022-07-30T18:21:56.932Z,101019.69
2022-07-30T18:24:24.612Z,101019.00
2022-07-30T18:26:51.932Z,101022.84
2022-07-30T18:29:18.582Z,101027.56
2022-07-30T18:31:45.340Z,101023.34
2022-07-30T18:34:11.992Z,101029.81
2022-07-30T18:36:38.652Z,101025.66
2022-07-30T18:39:06.571Z,101031.16
2022-07-30T18:41:33.225Z,101023.41
2022-07-30T18:43:59.760Z,101032.50
2022-07-30T18:46:26.358Z,101038.03
2022-07-30T18:48:53.092Z,101032.97
2022-07-30T18:51:19.907Z,101030.56
2022-07-30T18:53:47.601Z,101043.25
2022-07-30T18:56:14.240Z,101047.88
2022-07-30T18:58:40.908Z,101044.59
2022-07-30T19:01:07.595Z,101041.25
2022-07-30T19:03:34.984Z,101042.34
2022-07-30T19:06:01.876Z,101042.59
2022-07-30T19:08:28.487Z,101046.34
2022-07-30T19:10:55.600Z,101045.63
2022-07-30T19:13:24.181Z,101052.00
2022-07-30T19:15:51.116Z,101052.16
2022-07-30T19:18:17.938Z,101053.16
2022-07-30T19:20:44.535Z,101054.25
2022-07-30T19:23:12.300Z,101058.88
2022-07-30T19:25:39.367Z,101059.88
2022-07-30T19:28:06.050Z,101058.25
2022-07-30T19:30:33.193Z,101062.81
2022-07-30T19:33:10.236Z,101060.28
2022-07-30T19:35:41.392Z,101062.19
2022-07-30T19:38:09.872Z,101058.78
2022-07-30T19:40:42.329Z,101067.75
2022-07-30T19:43:10.351Z,101075.81
2022-07-30T19:45:47.793Z,101075.06
2022-07-30T19:48:15.219Z,101078.69
2022-07-30T19:50:56.496Z,101083.19
2022-07-30T19:53:23.144Z,101089.50
2022-07-30T19:55:50.948Z,101085.16
2022-07-30T19:58:17.987Z,101086.09
2022-07-30T20:00:49.376Z,101084.44
2022-07-30T20:03:18.965Z,101086.31
2022-07-30T20:05:57.275Z,101093.50
2022-07-30T20:08:27.091Z,101076.84
2022-07-30T20:10:57.583Z,101090.19
2022-07-30T20:13:45.214Z,101085.84
2022-07-30T20:16:12.320Z,101078.88
2022-07-30T20:18:39.782Z,101083.34
2022-07-30T20:21:08.359Z,101087.78
2022-07-30T20:23:39.629Z,101094.06
2022-07-30T20:26:12.670Z,101084.41
2022-07-30T20:28:40.751Z,101083.59
2022-07-30T20:31:08.500Z,101090.72
2022-07-30T20:33:36.133Z,101089.03
2022-07-30T20:36:04.744Z,101090.84
2022-07-30T20:38:34.477Z,101093.56
2022-07-30T20:41:20.353Z,101099.75
2022-07-30T20:46:35.167Z,101098.09
2022-07-30T20:49:02.955Z,101098.16
2022-07-30T20:51:33.544Z,101102.56
2022-07-30T20:54:00.529Z,101092.03
2022-07-30T20:56:28.550Z,101092.94
2022-07-30T20:58:56.616Z,101092.06
2022-07-30T21:01:23.437Z,101095.63
2022-07-30T21:03:50.176Z,101087.75
2022-07-30T21:06:17.060Z,101089.53
2022-07-30T21:08:43.815Z,101093.06
2022-07-30T21:11:12.424Z,101082.53
2022-07-30T21:13:39.533Z,101084.31
2022-07-30T21:16:15.835Z,101085.22
2022-07-30T21:18:49.903Z,101086.13
2022-07-30T21:21:17.843Z,101078.22
2022-07-30T21:23:56.231Z,101084.44
2022-07-30T21:26:23.412Z,101075.59
2022-07-30T21:28:50.494Z,101075.63
2022-07-30T21:31:19.141Z,101072.16
2022-07-30T21:34:05.883Z,101082.75
2022-07-30T21:36:32.634Z,101080.09
2022-07-30T21:39:00.310Z,101086.28
2022-07-30T21:41:39.971Z,101082.78
2022-07-30T21:44:07.476Z,101085.41
2022-07-30T21:46:34.281Z,101089.84
2022-07-30T21:49:01.015Z,101086.34
2022-07-30T21:51:27.788Z,101091.63
2022-07-30T21:53:54.534Z,101081.09
2022-07-30T21:56:24.657Z,101079.34
2022-07-30T21:58:51.818Z,101080.25
2022-07-30T22:01:22.642Z,101075.84
2022-07-30T22:04:03.923Z,101074.97
2022-07-30T22:06:38.204Z,101084.66
2022-07-30T22:09:26.268Z,101079.38
2022-07-30T22:11:53.680Z,101075.00
2022-07-30T22:14:20.417Z,101077.66
2022-07-30T22:16:47.053Z,101081.19
2022-07-30T22:19:14.847Z,101078.53
2022-07-30T22:21:42.620Z,101074.16
2022-07-30T22:27:01.723Z,101076.81
2022-07-30T22:29:38.289Z,101080.34
2022-07-30T22:32:06.892Z,101083.88
2022-07-30T22:34:34.725Z,101086.53
2022-07-30T22:37:01.251Z,101083.03
2022-07-30T22:39:32.079Z,101077.69
2022-07-30T22:42:15.724Z,101078.56
2022-07-30T22:44:46.069Z,101083.00
2022-07-30T22:47:51.333Z,101076.84
2022-07-30T22:50:17.500Z,101079.47
2022-07-30T22:52:52.812Z,101080.34
2022-07-30T22:55:25.918Z,101083.00
2022-07-30T22:57:53.017Z,101082.16
2022-07-30T23:00:28.252Z,101088.28
2022-07-30T23:02:55.693Z,101083.88
2022-07-30T23:05:22.765Z,101087.41
2022-07-30T23:07:49.913Z,101084.78
2022-07-30T23:10:18.624Z,101090.06
2022-07-30T23:12:19.120Z,101105.13
2022-07-30T23:12:32.308Z,101077.69
2022-07-30T23:12:53.877Z,101085.63
2022-07-30T23:15:20.885Z,101076.88
2022-07-30T23:17:47.821Z,101076.88
2022-07-30T23:20:20.436Z,101076.88
2022-07-30T23:22:47.439Z,101073.38
2022-07-30T23:25:14.001Z,101075.09
2022-07-30T23:27:41.535Z,101075.09
2022-07-30T23:30:09.837Z,101075.09
2022-07-30T23:32:36.986Z,101071.59
2022-07-30T23:35:04.484Z,101072.47
2022-07-30T23:37:47.769Z,101069.81
2022-07-30T23:40:16.628Z,101075.09
2022-07-30T23:42:43.226Z,101068.94
2022-07-30T23:45:10.341Z,101072.47
2022-07-30T23:47:52.149Z,101074.16
2022-07-30T23:50:25.241Z,101067.13
2022-07-30T23:52:52.031Z,101070.66
2022-07-30T23:55:18.707Z,101070.63
2022-07-30T23:57:45.613Z,101068.88
